createdAt,value
2023-05-03T00:01:26.492Z,86.66
2023-05-03T00:04:33.083Z,86.73
2023-05-03T00:07:38.651Z,87.06
2023-05-03T00:10:44.051Z,86.43
2023-05-03T00:13:49.888Z,86.96
2023-05-03T00:16:56.560Z,86.91
2023-05-03T00:20:03.880Z,86.44
2023-05-03T00:23:10.792Z,86.46
2023-05-03T00:26:09.593Z,86.79
2023-05-03T00:28:56.367Z,86.49
2023-05-03T00:31:50.649Z,86.04
2023-05-03T00:34:56.963Z,85.51
2023-05-03T00:37:55.931Z,84.98
2023-05-03T00:40:48.205Z,84.49
2023-05-03T00:43:53.084Z,84.53
2023-05-03T00:46:59.986Z,84.13
2023-05-03T00:50:05.765Z,84.42
2023-05-03T00:53:12.880Z,84.95
2023-05-03T00:56:18.262Z,84.88
2023-05-03T00:59:24.331Z,85.37
2023-05-03T01:02:32.248Z,85.59
2023-05-03T01:05:38.990Z,86.07
2023-05-03T01:09:01.793Z,86.64
2023-05-03T01:12:31.562Z,87.32
2023-05-03T01:15:50.367Z,87.86
2023-05-03T01:18:57.126Z,88.17
2023-05-03T01:21:58.506Z,88.24
2023-05-03T01:25:24.390Z,88.57
2023-05-03T01:28:30.200Z,88.79
2023-05-03T01:32:08.195Z,89.22
2023-05-03T01:35:27.510Z,89.68
2023-05-03T01:38:33.392Z,90.07
2023-05-03T01:41:40.482Z,90.28
2023-05-03T01:44:46.343Z,90.54
2023-05-03T01:47:52.953Z,90.70
2023-05-03T01:50:59.901Z,90.83
2023-05-03T01:54:06.873Z,91.21
2023-05-03T01:57:12.856Z,91.48
2023-05-03T02:00:18.578Z,91.77
2023-05-03T02:03:24.473Z,92.10
2023-05-03T02:06:29.265Z,92.12
2023-05-03T02:09:35.453Z,91.75
2023-05-03T02:12:41.356Z,91.80
2023-05-03T02:15:48.416Z,92.17
2023-05-03T02:18:48.707Z,92.28
2023-05-03T02:21:47.816Z,92.22
2023-05-03T02:24:57.455Z,92.29
2023-05-03T02:28:03.849Z,92.59
2023-05-03T02:31:12.159Z,92.99
2023-05-03T02:34:18.900Z,93.30
2023-05-03T02:37:24.378Z,93.48
2023-05-03T02:40:29.962Z,93.28
2023-05-03T02:43:35.992Z,92.51
2023-05-03T02:46:41.753Z,91.64
2023-05-03T02:49:42.513Z,90.45
2023-05-03T02:52:48.476Z,89.34
2023-05-03T02:55:55.376Z,88.50
2023-05-03T02:59:02.285Z,87.45
2023-05-03T03:02:08.009Z,86.34
2023-05-03T03:05:15.874Z,84.90
2023-05-03T03:08:23.467Z,83.55
2023-05-03T03:11:30.965Z,82.61
2023-05-03T03:14:36.563Z,81.39
2023-05-03T03:17:43.956Z,80.25
2023-05-03T03:20:49.983Z,79.95
2023-05-03T03:23:56.028Z,79.91
2023-05-03T03:27:01.784Z,78.68
2023-05-03T03:30:08.302Z,77.44
2023-05-03T03:33:16.848Z,77.18
2023-05-03T03:36:22.975Z,77.12
2023-05-03T03:39:27.984Z,76.83
2023-05-03T03:42:34.092Z,77.35
2023-05-03T03:45:39.642Z,77.20
2023-05-03T03:48:45.548Z,78.14
2023-05-03T03:51:51.504Z,79.00
2023-05-03T03:54:58.034Z,80.05
2023-05-03T03:57:59.173Z,80.68
2023-05-03T04:01:07.655Z,80.57
2023-05-03T04:04:14.499Z,80.85
2023-05-03T04:07:20.397Z,80.86
2023-05-03T04:10:27.393Z,80.24
2023-05-03T04:13:34.285Z,80.68
2023-05-03T04:16:40.016Z,80.76
2023-05-03T04:19:46.507Z,80.01
2023-05-03T04:22:52.266Z,77.70
2023-05-03T04:26:00.899Z,76.50
2023-05-03T04:29:07.066Z,76.55
2023-05-03T04:32:13.453Z,76.41
2023-05-03T04:35:20.341Z,75.80
2023-05-03T04:38:27.440Z,75.05
2023-05-03T04:41:34.324Z,74.15
2023-05-03T04:44:40.835Z,72.05
2023-05-03T04:47:46.763Z,71.43
2023-05-03T04:50:53.639Z,70.16
2023-05-03T04:54:00.601Z,68.34
2023-05-03T04:57:06.024Z,66.64
2023-05-03T05:00:14.636Z,64.66
2023-05-03T05:03:22.326Z,62.98
2023-05-03T05:06:27.576Z,62.07
2023-05-03T05:09:39.515Z,61.81
2023-05-03T05:12:38.209Z,62.90
2023-05-03T05:15:42.065Z,60.74
2023-05-03T05:18:48.631Z,58.98
2023-05-03T05:21:56.871Z,58.46
2023-05-03T05:25:05.123Z,57.24
2023-05-03T05:28:11.311Z,56.35
2023-05-03T05:31:16.432Z,55.00
2023-05-03T05:34:26.778Z,54.11
2023-05-03T05:37:32.370Z,53.26
2023-05-03T05:40:39.069Z,52.66
2023-05-03T05:43:39.794Z,52.15
2023-05-03T05:46:32.344Z,52.04
2023-05-03T05:49:37.376Z,52.06
2023-05-03T05:52:42.916Z,50.89
2023-05-03T05:55:48.319Z,49.79
2023-05-03T05:58:53.724Z,49.60
2023-05-03T06:01:59.475Z,49.96
2023-05-03T06:05:07.693Z,49.95
2023-05-03T06:08:12.444Z,48.43
2023-05-03T06:11:21.316Z,48.18
2023-05-03T06:14:27.834Z,47.95
2023-05-03T06:17:34.206Z,48.72
2023-05-03T06:20:40.970Z,47.52
2023-05-03T06:23:46.746Z,47.47
2023-05-03T06:26:53.099Z,47.29
2023-05-03T06:29:58.482Z,47.33
2023-05-03T06:33:04.550Z,48.07
2023-05-03T06:36:10.322Z,47.39
2023-05-03T06:39:18.042Z,45.75
2023-05-03T06:42:23.725Z,47.24
2023-05-03T06:45:39.092Z,46.83
2023-05-03T06:48:44.226Z,47.44
2023-05-03T06:51:44.830Z,47.31
2023-05-03T06:54:50.364Z,47.72
2023-05-03T06:58:00.501Z,45.80
2023-05-03T07:01:08.560Z,46.21
2023-05-03T07:04:14.064Z,45.88
2023-05-03T07:07:19.666Z,43.12
2023-05-03T07:10:25.144Z,42.42
2023-05-03T07:13:30.358Z,41.83
2023-05-03T07:16:35.309Z,41.74
2023-05-03T07:19:40.715Z,42.14
2023-05-03T07:22:46.148Z,40.14
2023-05-03T07:25:50.696Z,39.44
2023-05-03T07:28:56.162Z,38.38
2023-05-03T07:32:02.013Z,38.21
2023-05-03T07:35:07.312Z,39.96
2023-05-03T07:38:13.159Z,38.87
2023-05-03T07:41:18.686Z,39.42
2023-05-03T07:44:23.606Z,39.27
2023-05-03T07:47:29.283Z,40.00
2023-05-03T07:50:35.253Z,38.85
2023-05-03T07:53:43.924Z,38.42
2023-05-03T07:56:49.551Z,39.23
2023-05-03T07:59:55.198Z,42.63
2023-05-03T08:03:03.964Z,40.38
2023-05-03T08:06:09.713Z,40.80
2023-05-03T08:09:16.119Z,42.52
2023-05-03T08:12:25.126Z,41.59
2023-05-03T08:15:31.419Z,40.97
2023-05-03T08:18:36.834Z,40.04
2023-05-03T08:21:42.390Z,39.55
2023-05-03T08:24:47.033Z,40.29
2023-05-03T08:27:52.632Z,38.83
2023-05-03T08:30:59.633Z,37.71
2023-05-03T08:34:05.761Z,38.33
2023-05-03T08:37:05.626Z,39.00
2023-05-03T08:40:13.000Z,42.12
2023-05-03T08:43:22.441Z,40.55
2023-05-03T08:46:27.711Z,39.15
2023-05-03T08:49:33.865Z,38.93
2023-05-03T08:52:41.677Z,36.01
2023-05-03T08:55:49.256Z,36.19
2023-05-03T08:58:55.834Z,37.37
2023-05-03T09:02:01.770Z,36.78
2023-05-03T09:05:07.361Z,39.36
2023-05-03T09:08:23.929Z,39.86
2023-05-03T09:11:41.738Z,42.05
2023-05-03T09:14:49.135Z,42.79
2023-05-03T09:17:55.645Z,42.23
2023-05-03T09:21:02.729Z,40.09
2023-05-03T09:24:10.181Z,41.33
2023-05-03T09:27:17.478Z,40.69
2023-05-03T09:30:35.872Z,38.59
2023-05-03T09:33:44.566Z,37.95
2023-05-03T09:37:02.914Z,38.41
2023-05-03T09:40:10.766Z,40.22
2023-05-03T09:43:24.278Z,42.05
2023-05-03T09:46:31.899Z,41.66
2023-05-03T09:49:37.187Z,39.56
2023-05-03T09:52:45.152Z,38.63
2023-05-03T09:55:54.807Z,39.84
2023-05-03T09:58:59.576Z,40.94
2023-05-03T10:02:09.219Z,39.22
2023-05-03T10:05:14.098Z,40.31
2023-05-03T10:08:19.368Z,41.42
2023-05-03T10:11:24.612Z,42.21
2023-05-03T10:14:29.704Z,42.42
2023-05-03T10:17:46.924Z,41.82
2023-05-03T10:20:59.299Z,41.50
2023-05-03T10:24:29.851Z,41.34
2023-05-03T10:27:37.469Z,40.90
2023-05-03T10:30:45.605Z,41.69
2023-05-03T10:33:50.524Z,41.13
2023-05-03T10:36:59.279Z,41.55
2023-05-03T10:40:06.236Z,41.56
2023-05-03T10:43:11.625Z,40.29
2023-05-03T10:46:22.149Z,40.71
2023-05-03T10:49:33.740Z,41.34
2023-05-03T10:52:56.769Z,41.96
2023-05-03T10:56:26.263Z,41.48
2023-05-03T10:59:32.288Z,41.80
2023-05-03T11:02:39.842Z,41.89
2023-05-03T11:05:45.053Z,42.02
2023-05-03T11:08:50.771Z,41.42
2023-05-03T11:11:56.133Z,41.50
2023-05-03T11:15:03.762Z,42.22
2023-05-03T11:18:10.527Z,41.79
2023-05-03T11:21:15.961Z,42.85
2023-05-03T11:24:20.989Z,42.76
2023-05-03T11:27:27.199Z,41.85
2023-05-03T11:30:33.269Z,41.27
2023-05-03T11:33:41.518Z,41.29
2023-05-03T11:36:46.602Z,40.89
2023-05-03T11:39:51.541Z,43.08
2023-05-03T11:43:14.412Z,42.96
2023-05-03T11:46:19.910Z,43.83
2023-05-03T11:49:26.018Z,43.64
2023-05-03T11:52:37.683Z,42.10
2023-05-03T11:55:44.202Z,42.32
2023-05-03T11:58:50.076Z,43.22
2023-05-03T12:01:56.426Z,44.09
2023-05-03T12:05:04.536Z,43.40
2023-05-03T12:08:14.279Z,42.89
2023-05-03T12:11:19.212Z,45.78
2023-05-03T12:14:26.388Z,46.74
2023-05-03T12:17:51.152Z,46.77
2023-05-03T12:21:30.512Z,46.56
2023-05-03T12:24:05.825Z,45.90
2023-05-03T12:27:10.068Z,46.01
2023-05-03T12:30:18.438Z,44.80
2023-05-03T12:33:28.199Z,45.61
2023-05-03T12:36:37.471Z,45.91
2023-05-03T12:39:41.223Z,44.42
2023-05-03T12:42:48.989Z,43.68
2023-05-03T12:46:25.126Z,42.65
2023-05-03T12:49:06.744Z,42.16
2023-05-03T12:52:36.246Z,43.77
2023-05-03T12:55:17.958Z,43.66
2023-05-03T13:04:57.202Z,44.20
2023-05-03T13:07:44.210Z,42.95
2023-05-03T13:10:55.135Z,43.70
2023-05-03T13:14:00.633Z,44.13
2023-05-03T13:17:06.540Z,43.72
2023-05-03T13:20:14.144Z,43.71
2023-05-03T13:23:19.185Z,43.69
2023-05-03T13:26:26.074Z,43.70
2023-05-03T13:29:31.802Z,42.89
2023-05-03T13:32:36.412Z,43.33
2023-05-03T13:35:42.295Z,44.34
2023-05-03T13:38:48.919Z,44.88
2023-05-03T13:41:57.102Z,45.83
2023-05-03T13:45:03.480Z,44.49
2023-05-03T13:48:18.288Z,44.52
2023-05-03T13:51:26.688Z,44.25
2023-05-03T13:54:33.346Z,44.59
2023-05-03T13:57:39.105Z,45.01
2023-05-03T14:00:44.923Z,45.55
2023-05-03T14:03:51.855Z,44.78
2023-05-03T14:06:43.416Z,44.48
2023-05-03T14:09:50.077Z,44.02
2023-05-03T14:12:57.251Z,43.65
2023-05-03T14:16:03.011Z,44.23
2023-05-03T14:19:11.469Z,43.39
2023-05-03T14:22:18.069Z,43.15
2023-05-03T14:25:24.627Z,42.74
2023-05-03T14:28:30.217Z,43.33
2023-05-03T14:31:36.028Z,43.75
2023-05-03T14:34:42.489Z,43.77
2023-05-03T14:37:48.521Z,43.34
2023-05-03T14:40:55.090Z,44.44
2023-05-03T14:44:01.614Z,44.65
2023-05-03T14:47:07.419Z,44.38
2023-05-03T14:50:13.748Z,44.79
2023-05-03T14:53:12.339Z,44.53
2023-05-03T14:56:17.982Z,44.77
2023-05-03T14:59:23.562Z,44.64
2023-05-03T15:02:29.338Z,44.80
2023-05-03T15:05:35.379Z,45.26
2023-05-03T15:08:40.933Z,46.42
2023-05-03T15:11:48.721Z,45.33
2023-05-03T15:14:53.891Z,45.06
2023-05-03T15:18:00.506Z,45.82
2023-05-03T15:21:07.084Z,46.31
2023-05-03T15:24:05.891Z,47.27
2023-05-03T15:27:11.540Z,47.64
2023-05-03T15:30:18.656Z,48.19
2023-05-03T15:33:24.487Z,48.60
2023-05-03T15:36:30.474Z,48.87
2023-05-03T15:39:35.514Z,49.59
2023-05-03T15:42:41.879Z,50.27
2023-05-03T15:45:49.266Z,50.50
2023-05-03T15:48:54.901Z,51.09
2023-05-03T15:52:00.493Z,52.42
2023-05-03T15:55:05.952Z,52.92
2023-05-03T15:58:14.052Z,53.23
2023-05-03T16:01:20.485Z,54.12
2023-05-03T16:04:25.791Z,56.42
2023-05-03T16:07:33.736Z,57.54
2023-05-03T16:10:39.463Z,57.94
2023-05-03T16:13:45.141Z,57.42
2023-05-03T16:16:53.849Z,57.66
2023-05-03T16:19:59.879Z,57.66
2023-05-03T16:23:04.931Z,58.00
2023-05-03T16:26:11.388Z,58.44
2023-05-03T16:29:17.309Z,60.05
2023-05-03T16:32:23.650Z,61.41
2023-05-03T16:35:29.642Z,61.92
2023-05-03T16:38:37.380Z,62.70
2023-05-03T16:41:43.629Z,62.38
2023-05-03T16:44:49.377Z,63.48
2023-05-03T16:47:55.476Z,63.76
2023-05-03T16:51:01.087Z,64.46
2023-05-03T16:54:06.851Z,64.83
2023-05-03T16:57:12.393Z,64.92
2023-05-03T17:00:19.350Z,65.15
2023-05-03T17:03:26.000Z,65.18
2023-05-03T17:06:33.461Z,65.38
2023-05-03T17:09:38.260Z,65.33
2023-05-03T17:12:44.471Z,65.49
2023-05-03T17:15:51.801Z,65.49
2023-05-03T17:18:58.465Z,65.94
2023-05-03T17:22:04.845Z,66.08
2023-05-03T17:25:13.505Z,66.45
2023-05-03T17:28:19.113Z,66.57
2023-05-03T17:31:23.776Z,66.73
2023-05-03T17:34:29.648Z,67.37
2023-05-03T17:37:35.991Z,67.81
2023-05-03T17:40:41.719Z,68.04
2023-05-03T17:43:51.636Z,68.26
2023-05-03T17:46:57.832Z,68.35
2023-05-03T17:50:03.841Z,68.68
2023-05-03T17:53:09.962Z,68.66
2023-05-03T17:56:15.256Z,69.40
2023-05-03T17:59:21.513Z,69.82
2023-05-03T18:02:28.013Z,70.66
2023-05-03T18:05:33.868Z,70.97
2023-05-03T18:08:39.701Z,71.27
2023-05-03T18:11:46.264Z,71.78
2023-05-03T18:14:52.083Z,72.08
2023-05-03T18:17:58.639Z,72.64
2023-05-03T18:21:19.107Z,73.45
2023-05-03T18:24:25.969Z,74.59
2023-05-03T18:27:32.067Z,75.35
2023-05-03T18:30:37.845Z,75.67
2023-05-03T18:33:43.301Z,75.84
2023-05-03T18:36:48.818Z,76.09
2023-05-03T18:39:54.125Z,76.44
2023-05-03T18:43:00.798Z,77.30
2023-05-03T18:46:06.328Z,77.40
2023-05-03T18:49:12.503Z,77.63
2023-05-03T18:52:18.288Z,77.95
2023-05-03T18:55:24.312Z,77.99
2023-05-03T18:58:30.535Z,78.18
2023-05-03T19:01:37.100Z,78.26
2023-05-03T19:04:42.986Z,78.61
2023-05-03T19:07:50.279Z,78.94
2023-05-03T19:10:56.484Z,79.14
2023-05-03T19:14:02.412Z,79.32
2023-05-03T19:17:08.879Z,79.58
2023-05-03T19:20:14.348Z,79.93
2023-05-03T19:23:19.881Z,80.23
2023-05-03T19:26:25.642Z,80.83
2023-05-03T19:29:30.805Z,80.92
2023-05-03T19:32:36.091Z,81.16
2023-05-03T19:35:42.607Z,81.58
2023-05-03T19:38:43.084Z,81.97
2023-05-03T19:41:29.438Z,81.78
2023-05-03T19:44:28.972Z,81.75
2023-05-03T19:47:34.238Z,82.61
2023-05-03T19:50:39.885Z,83.53
2023-05-03T19:53:48.562Z,84.02
2023-05-03T19:56:53.618Z,84.74
2023-05-03T19:59:59.387Z,84.99
2023-05-03T20:03:05.280Z,84.87
2023-05-03T20:06:10.916Z,84.78
2023-05-03T20:09:18.121Z,85.22
2023-05-03T20:12:23.820Z,85.32
2023-05-03T20:15:29.214Z,85.26
2023-05-03T20:18:35.447Z,85.10
2023-05-03T20:21:40.703Z,85.40
2023-05-03T20:24:46.352Z,85.39
2023-05-03T20:27:52.812Z,85.75
2023-05-03T20:30:58.459Z,86.34
2023-05-03T20:34:04.799Z,86.85
2023-05-03T20:37:09.984Z,87.59
2023-05-03T20:40:15.411Z,88.06
2023-05-03T20:43:20.933Z,88.35
2023-05-03T20:46:26.085Z,88.73
2023-05-03T20:49:31.627Z,89.04
2023-05-03T20:52:37.851Z,89.34
2023-05-03T20:55:42.801Z,89.37
2023-05-03T20:58:48.606Z,89.29
2023-05-03T21:01:55.006Z,89.30
2023-05-03T21:05:00.799Z,89.24
2023-05-03T21:08:06.355Z,89.50
2023-05-03T21:11:15.152Z,89.66
2023-05-03T21:14:21.817Z,89.71
2023-05-03T21:17:27.581Z,90.16
2023-05-03T21:20:33.190Z,90.35
2023-05-03T21:23:38.886Z,90.65
2023-05-03T21:26:45.054Z,90.83
2023-05-03T21:29:51.736Z,91.26
2023-05-03T21:32:57.077Z,91.67
2023-05-03T21:36:03.616Z,92.07
2023-05-03T21:39:08.612Z,92.39
2023-05-03T21:42:14.863Z,92.76
2023-05-03T21:45:20.454Z,93.04
2023-05-03T21:48:26.088Z,93.14
2023-05-03T21:51:36.328Z,93.51
2023-05-03T21:54:42.834Z,93.92
2023-05-03T21:57:47.884Z,94.18
2023-05-03T22:00:52.863Z,94.26
2023-05-03T22:03:59.987Z,94.13
2023-05-03T22:07:05.683Z,94.38
2023-05-03T22:10:12.079Z,94.81
2023-05-03T22:13:17.893Z,95.20
2023-05-03T22:16:23.883Z,95.52
2023-05-03T22:19:30.934Z,95.79
2023-05-03T22:22:37.013Z,95.92
2023-05-03T22:25:42.239Z,96.03
2023-05-03T22:28:47.294Z,96.25
2023-05-03T22:31:53.542Z,96.24
2023-05-03T22:34:59.177Z,96.35
2023-05-03T22:38:04.870Z,96.51
2023-05-03T22:41:09.907Z,96.82
2023-05-03T22:44:14.536Z,97.12
2023-05-03T22:47:20.451Z,97.58
2023-05-03T22:50:25.499Z,97.90
2023-05-03T22:53:31.820Z,97.97
2023-05-03T22:56:37.591Z,97.29
2023-05-03T22:59:44.871Z,97.10
2023-05-03T23:02:50.196Z,97.57
2023-05-03T23:05:56.587Z,98.15
2023-05-03T23:09:01.910Z,98.94
2023-05-03T23:12:08.706Z,99.33
2023-05-03T23:15:13.981Z,99.45
2023-05-03T23:18:21.138Z,99.56
2023-05-03T23:21:26.232Z,99.57
2023-05-03T23:24:32.619Z,99.66
2023-05-03T23:27:39.431Z,99.82
2023-05-03T23:30:44.671Z,99.71
2023-05-03T23:33:50.198Z,99.53
2023-05-03T23:36:56.743Z,100.00
2023-05-03T23:40:02.633Z,100.00
2023-05-03T23:43:07.965Z,100.00
2023-05-03T23:46:13.744Z,100.00
2023-05-03T23:49:19.621Z,100.00
2023-05-03T23:52:27.527Z,100.00
2023-05-03T23:55:32.550Z,100.00
2023-05-03T23:58:38.597Z,100.00
